createdAt,value
2022-09-14T00:02:29.345Z,0.00
2022-09-14T00:07:29.068Z,0.00
2022-09-14T00:12:29.008Z,0.00
2022-09-14T00:17:28.931Z,0.00
2022-09-14T00:22:28.867Z,0.00
2022-09-14T00:27:28.834Z,0.00
2022-09-14T00:32:28.739Z,0.00
2022-09-14T00:37:28.670Z,0.00
2022-09-14T00:42:28.602Z,0.00
2022-09-14T00:47:28.553Z,0.00
2022-09-14T00:52:28.475Z,0.00
2022-09-14T00:57:28.403Z,0.00
2022-09-14T01:02:28.403Z,0.00
2022-09-14T01:07:28.302Z,0.00
2022-09-14T01:12:28.201Z,0.00
2022-09-14T01:17:28.131Z,0.00
2022-09-14T01:22:28.094Z,0.00
2022-09-14T01:27:28.001Z,0.00
2022-09-14T01:32:27.942Z,0.00
2022-09-14T01:37:27.862Z,0.00
2022-09-14T01:42:27.827Z,0.00
2022-09-14T01:47:27.733Z,0.00
2022-09-14T01:52:27.683Z,0.00
2022-09-14T01:57:27.593Z,0.00
2022-09-14T02:02:27.666Z,0.00
2022-09-14T02:07:27.463Z,0.00
2022-09-14T02:12:27.422Z,0.00
2022-09-14T02:17:27.335Z,0.00
2022-09-14T02:22:27.282Z,0.00
2022-09-14T02:27:27.226Z,0.00
2022-09-14T02:32:27.176Z,0.00
2022-09-14T02:37:27.124Z,0.00
2022-09-14T02:42:27.315Z,0.00
2022-09-14T02:47:26.946Z,0.00
2022-09-14T02:52:26.896Z,0.00
2022-09-14T02:57:26.847Z,0.00
2022-09-14T03:02:26.822Z,0.00
2022-09-14T03:07:26.700Z,0.00
2022-09-14T03:12:26.620Z,0.00
2022-09-14T03:17:26.558Z,0.00
2022-09-14T03:22:26.497Z,0.00
2022-09-14T03:27:26.439Z,0.00
2022-09-14T03:32:26.369Z,0.00
2022-09-14T03:37:26.279Z,0.00
2022-09-14T03:42:26.230Z,0.00
2022-09-14T03:47:26.159Z,0.00
2022-09-14T03:52:26.083Z,0.00
2022-09-14T03:57:26.041Z,0.00
2022-09-14T04:02:26.013Z,0.00
2022-09-14T04:07:25.891Z,0.00
2022-09-14T04:12:25.862Z,0.00
2022-09-14T04:17:25.803Z,0.00
2022-09-14T04:22:25.867Z,0.00
2022-09-14T04:27:25.624Z,0.00
2022-09-14T04:32:25.551Z,0.00
2022-09-14T04:37:25.484Z,0.00
2022-09-14T04:42:25.425Z,0.00
2022-09-14T04:47:25.366Z,0.00
2022-09-14T04:52:25.345Z,5.62
2022-09-14T04:57:25.245Z,5.62
2022-09-14T05:02:25.260Z,11.25
2022-09-14T05:07:25.086Z,16.88
2022-09-14T05:12:25.033Z,16.88
2022-09-14T05:17:24.976Z,16.88
2022-09-14T05:22:24.895Z,22.50
2022-09-14T05:27:24.985Z,28.12
2022-09-14T05:32:24.776Z,28.12
2022-09-14T05:37:24.697Z,33.75
2022-09-14T05:42:24.638Z,39.38
2022-09-14T05:47:24.573Z,45.00
2022-09-14T05:52:24.516Z,50.62
2022-09-14T05:57:24.441Z,67.50
2022-09-14T06:02:24.574Z,84.38
2022-09-14T06:07:24.312Z,95.62
2022-09-14T06:12:24.291Z,78.75
2022-09-14T06:17:24.189Z,101.25
2022-09-14T06:22:24.143Z,118.12
2022-09-14T06:27:24.061Z,123.75
2022-09-14T06:32:23.999Z,118.12
2022-09-14T06:37:23.910Z,101.25
2022-09-14T06:42:23.849Z,78.75
2022-09-14T06:47:23.811Z,67.50
2022-09-14T06:52:23.704Z,50.62
2022-09-14T06:57:23.670Z,50.62
2022-09-14T07:02:23.615Z,56.25
2022-09-14T07:07:23.522Z,67.50
2022-09-14T07:12:23.443Z,67.50
2022-09-14T07:17:23.377Z,84.38
2022-09-14T07:22:23.356Z,106.88
2022-09-14T07:27:23.254Z,135.00
2022-09-14T07:32:23.167Z,151.88
2022-09-14T07:37:23.276Z,157.50
2022-09-14T07:42:23.097Z,163.12
2022-09-14T07:47:22.997Z,168.75
2022-09-14T07:52:22.917Z,168.75
2022-09-14T07:57:39.428Z,157.50
2022-09-14T08:02:23.850Z,174.38
2022-09-14T08:07:22.698Z,191.25
2022-09-14T08:12:22.633Z,225.00
2022-09-14T08:17:22.562Z,230.62
2022-09-14T08:22:22.531Z,258.75
2022-09-14T08:27:22.441Z,219.38
2022-09-14T08:32:22.396Z,185.62
2022-09-14T08:37:22.311Z,157.50
2022-09-14T08:42:22.411Z,151.88
2022-09-14T08:47:22.178Z,151.88
2022-09-14T08:52:23.004Z,213.75
2022-09-14T08:57:22.053Z,241.88
2022-09-14T09:02:22.002Z,270.00
2022-09-14T09:07:21.915Z,320.62
2022-09-14T09:12:21.867Z,264.38
2022-09-14T09:17:21.790Z,191.25
2022-09-14T09:22:21.716Z,151.88
2022-09-14T09:27:21.660Z,185.62
2022-09-14T09:32:21.606Z,303.75
2022-09-14T09:37:21.516Z,337.50
2022-09-14T09:42:21.459Z,286.88
2022-09-14T09:47:21.457Z,365.62
2022-09-14T09:52:21.328Z,399.38
2022-09-14T09:57:21.257Z,393.75
2022-09-14T10:02:21.265Z,399.38
2022-09-14T10:07:21.125Z,320.62
2022-09-14T10:12:21.069Z,399.38
2022-09-14T10:17:20.990Z,331.88
2022-09-14T10:22:25.720Z,270.00
2022-09-14T10:27:21.852Z,219.38
2022-09-14T10:32:20.812Z,208.12
2022-09-14T10:37:20.725Z,253.12
2022-09-14T10:42:20.681Z,253.12
2022-09-14T10:47:20.606Z,241.88
2022-09-14T10:52:20.712Z,196.88
2022-09-14T10:57:20.454Z,168.75
2022-09-14T11:02:20.585Z,135.00
2022-09-14T11:07:20.366Z,118.12
2022-09-14T11:12:20.256Z,129.38
2022-09-14T11:17:20.197Z,140.62
2022-09-14T11:22:20.156Z,163.12
2022-09-14T11:27:20.068Z,180.00
2022-09-14T11:32:21.785Z,213.75
2022-09-14T11:37:19.939Z,247.50
2022-09-14T11:42:19.868Z,219.38
2022-09-14T11:47:19.790Z,247.50
2022-09-14T11:52:19.730Z,292.50
2022-09-14T11:57:19.834Z,303.75
2022-09-14T12:02:19.653Z,315.00
2022-09-14T12:07:19.531Z,286.88
2022-09-14T12:12:19.476Z,275.62
2022-09-14T12:22:20.343Z,303.75
2022-09-14T12:27:19.265Z,326.25
2022-09-14T12:32:19.224Z,360.00
2022-09-14T12:37:19.146Z,376.88
2022-09-14T12:42:23.442Z,365.62
2022-09-14T12:47:20.047Z,354.38
2022-09-14T12:52:18.954Z,315.00
2022-09-14T12:57:18.879Z,247.50
2022-09-14T13:02:18.940Z,247.50
2022-09-14T13:07:18.784Z,393.75
2022-09-14T13:12:18.699Z,466.88
2022-09-14T13:17:18.652Z,315.00
2022-09-14T13:22:18.580Z,208.12
2022-09-14T13:27:18.502Z,196.88
2022-09-14T13:32:18.432Z,185.62
2022-09-14T13:37:18.403Z,180.00
2022-09-14T13:42:18.304Z,168.75
2022-09-14T13:47:18.255Z,112.50
2022-09-14T13:52:18.164Z,123.75
2022-09-14T13:57:18.103Z,174.38
2022-09-14T14:02:18.096Z,180.00
2022-09-14T14:07:18.003Z,151.88
2022-09-14T14:12:17.908Z,123.75
2022-09-14T14:17:17.826Z,123.75
2022-09-14T14:22:17.777Z,129.38
2022-09-14T14:27:17.701Z,112.50
2022-09-14T14:32:17.729Z,106.88
2022-09-14T14:37:17.579Z,78.75
2022-09-14T14:42:17.530Z,95.62
2022-09-14T14:47:17.450Z,90.00
2022-09-14T14:52:17.381Z,90.00
2022-09-14T14:57:17.311Z,73.12
2022-09-14T15:02:17.261Z,61.88
2022-09-14T15:07:17.192Z,67.50
2022-09-14T15:12:17.303Z,50.62
2022-09-14T15:17:17.080Z,50.62
2022-09-14T15:22:17.005Z,56.25
2022-09-14T15:27:16.912Z,61.88
2022-09-14T15:32:16.885Z,61.88
2022-09-14T15:37:16.807Z,50.62
2022-09-14T15:42:16.714Z,67.50
2022-09-14T15:47:16.675Z,73.12
2022-09-14T15:52:16.586Z,67.50
2022-09-14T15:57:16.536Z,50.62
2022-09-14T16:02:16.489Z,50.62
2022-09-14T16:07:16.406Z,45.00
2022-09-14T16:12:16.320Z,45.00
2022-09-14T16:17:16.308Z,39.38
2022-09-14T16:22:16.190Z,39.38
2022-09-14T16:27:16.109Z,28.12
2022-09-14T16:32:16.049Z,28.12
2022-09-14T16:37:15.980Z,22.50
2022-09-14T16:42:15.921Z,16.88
2022-09-14T16:47:15.867Z,16.88
2022-09-14T16:52:15.810Z,11.25
2022-09-14T16:57:15.722Z,5.62
2022-09-14T17:02:15.790Z,5.62
2022-09-14T17:07:15.585Z,0.00
2022-09-14T17:12:15.522Z,0.00
2022-09-14T17:17:15.627Z,0.00
2022-09-14T17:22:15.403Z,0.00
2022-09-14T17:27:15.384Z,0.00
2022-09-14T17:32:15.286Z,0.00
2022-09-14T17:37:15.184Z,0.00
2022-09-14T17:42:15.135Z,0.00
2022-09-14T17:47:15.107Z,0.00
2022-09-14T17:52:15.035Z,0.00
2022-09-14T17:57:14.990Z,0.00
2022-09-14T18:02:14.944Z,0.00
2022-09-14T18:07:14.819Z,0.00
2022-09-14T18:12:14.838Z,0.00
2022-09-14T18:17:14.992Z,0.00
2022-09-14T18:22:14.660Z,0.00
2022-09-14T18:27:14.518Z,0.00
2022-09-14T18:32:14.479Z,0.00
2022-09-14T18:37:14.409Z,0.00
2022-09-14T18:42:14.346Z,0.00
2022-09-14T18:47:14.260Z,0.00
2022-09-14T18:52:14.443Z,0.00
2022-09-14T18:57:14.284Z,0.00
2022-09-14T19:02:14.333Z,0.00
2022-09-14T19:07:14.069Z,0.00
2022-09-14T19:12:13.965Z,0.00
2022-09-14T19:17:14.057Z,0.00
2022-09-14T19:22:14.053Z,0.00
2022-09-14T19:27:13.757Z,0.00
2022-09-14T19:32:13.704Z,0.00
2022-09-14T19:37:13.638Z,0.00
2022-09-14T19:42:13.556Z,0.00
2022-09-14T19:47:13.505Z,0.00
2022-09-14T19:52:13.416Z,0.00
2022-09-14T19:57:13.387Z,0.00
2022-09-14T20:02:13.398Z,0.00
2022-09-14T20:07:13.343Z,0.00
2022-09-14T20:12:13.237Z,0.00
2022-09-14T20:17:13.145Z,0.00
2022-09-14T20:22:16.704Z,0.00
2022-09-14T20:27:13.178Z,0.00
2022-09-14T20:32:15.389Z,0.00
2022-09-14T20:37:12.880Z,0.00
2022-09-14T20:42:12.780Z,0.00
2022-09-14T20:47:12.713Z,0.00
2022-09-14T20:52:12.680Z,0.00
2022-09-14T20:57:12.722Z,0.00
2022-09-14T21:02:12.645Z,0.00
2022-09-14T21:07:12.603Z,0.00
2022-09-14T21:12:12.394Z,0.00
2022-09-14T21:17:12.330Z,0.00
2022-09-14T21:22:12.293Z,0.00
2022-09-14T21:27:12.198Z,0.00
2022-09-14T21:32:12.172Z,0.00
2022-09-14T21:37:12.100Z,0.00
2022-09-14T21:42:11.984Z,0.00
2022-09-14T21:47:11.958Z,0.00
2022-09-14T21:52:11.875Z,0.00
2022-09-14T21:57:11.785Z,0.00
2022-09-14T22:02:11.781Z,0.00
2022-09-14T22:07:11.674Z,0.00
2022-09-14T22:12:11.617Z,0.00
2022-09-14T22:17:11.542Z,0.00
2022-09-14T22:22:11.448Z,0.00
2022-09-14T22:27:11.406Z,0.00
2022-09-14T22:32:11.320Z,0.00
2022-09-14T22:37:11.437Z,0.00
2022-09-14T22:42:11.190Z,0.00
2022-09-14T22:47:11.181Z,0.00
2022-09-14T22:52:11.067Z,0.00
2022-09-14T22:57:11.036Z,0.00
2022-09-14T23:02:11.007Z,0.00
2022-09-14T23:07:10.895Z,0.00
2022-09-14T23:12:10.886Z,0.00
2022-09-14T23:17:10.750Z,0.00
2022-09-14T23:22:10.659Z,0.00
2022-09-14T23:27:10.588Z,0.00
2022-09-14T23:32:10.533Z,0.00
2022-09-14T23:37:10.466Z,0.00
2022-09-14T23:42:10.421Z,0.00
2022-09-14T23:47:10.332Z,0.00
2022-09-14T23:52:10.272Z,0.00
2022-09-14T23:57:10.245Z,0.00
